createdAt,value
2017-07-12T16:44:20.210Z,95052.38
2017-07-12T16:46:48.835Z,95054.50
2017-07-12T16:49:17.263Z,95055.28
2017-07-12T16:51:44.877Z,95054.94
2017-07-12T16:54:12.520Z,95055.04
2017-07-12T16:56:40.187Z,95051.99
2017-07-12T16:59:08.097Z,95055.17
2017-07-12T17:01:36.353Z,95054.84
2017-07-12T17:04:04.189Z,95052.67
2017-07-12T17:06:32.216Z,95052.28
2017-07-12T17:08:59.907Z,95052.88
2017-07-12T17:11:27.601Z,95054.45
2017-07-12T17:13:55.193Z,95059.61
2017-07-12T17:16:22.848Z,95057.30
2017-07-12T17:18:50.612Z,95050.75
2017-07-12T17:21:18.638Z,95052.97
2017-07-12T17:23:47.975Z,95049.34
2017-07-12T17:26:15.558Z,95040.42
2017-07-12T17:28:43.315Z,95038.68
2017-07-12T17:31:10.875Z,95041.92
2017-07-12T17:33:38.553Z,95044.64
2017-07-12T17:36:07.108Z,95045.69
2017-07-12T17:38:35.627Z,95045.53
2017-07-12T17:41:04.773Z,95042.61
2017-07-12T17:43:33.170Z,95043.09
2017-07-12T17:46:00.913Z,95042.87
2017-07-12T17:48:28.514Z,95054.02
2017-07-12T17:50:56.090Z,95045.41
2017-07-12T17:53:23.836Z,95038.97
2017-07-12T17:55:51.441Z,95042.59
2017-07-12T17:58:19.005Z,95038.95
2017-07-12T18:00:46.676Z,95036.39
2017-07-12T18:03:14.334Z,95027.86
2017-07-12T18:05:41.907Z,95033.52
2017-07-12T18:08:09.488Z,95036.47
2017-07-12T18:10:37.081Z,95040.20
2017-07-12T18:13:04.682Z,95044.32
2017-07-12T18:15:32.274Z,95037.77
2017-07-12T18:17:59.846Z,95041.82
2017-07-12T18:20:27.476Z,95043.64
2017-07-12T18:22:55.159Z,95040.06
2017-07-12T18:25:22.779Z,95042.36
2017-07-12T18:27:50.378Z,95040.92
2017-07-12T18:30:18.142Z,95043.33
2017-07-12T18:32:45.758Z,95049.13
2017-07-12T18:35:13.361Z,95051.85
2017-07-12T18:37:41.006Z,95057.47
2017-07-12T18:40:08.640Z,95057.13
2017-07-12T18:42:36.375Z,95061.16
2017-07-12T18:45:03.980Z,95059.08
2017-07-12T18:47:32.054Z,95062.81
2017-07-12T18:50:00.348Z,95065.91
2017-07-12T18:52:28.614Z,95068.20
2017-07-12T18:54:56.276Z,95073.87
2017-07-12T18:57:23.986Z,95067.67
2017-07-12T18:59:51.659Z,95066.30
2017-07-12T19:02:19.384Z,95068.47
2017-07-12T19:04:48.296Z,95074.12
2017-07-12T19:07:15.922Z,95075.30
2017-07-12T19:09:44.031Z,95073.32
2017-07-12T19:12:11.664Z,95070.78
2017-07-12T19:14:39.292Z,95076.76
2017-07-12T19:17:19.154Z,95071.50
2017-07-12T19:19:46.921Z,95071.11
2017-07-12T19:22:14.598Z,95076.38
2017-07-12T19:24:42.782Z,95075.44
2017-07-12T19:27:11.242Z,95070.57
2017-07-12T19:33:55.815Z,95068.23
2017-07-12T19:43:05.006Z,95072.36
2017-07-12T19:45:32.615Z,95069.88
2017-07-12T19:48:01.137Z,95062.33
2017-07-12T19:50:28.803Z,95068.14
2017-07-12T19:52:56.510Z,95066.88
2017-07-12T19:55:24.747Z,95065.50
2017-07-12T19:57:52.414Z,95052.39
2017-07-12T20:00:20.938Z,95069.22
2017-07-12T20:02:49.279Z,95072.18
2017-07-12T20:05:17.167Z,95074.36
2017-07-12T20:07:44.849Z,95075.92
2017-07-12T20:10:13.304Z,95070.31
2017-07-12T20:12:41.630Z,95074.80
2017-07-12T20:15:09.311Z,95066.92
2017-07-12T20:17:36.986Z,95064.53
2017-07-12T20:20:05.446Z,95067.23
2017-07-12T20:22:33.846Z,95073.05
2017-07-12T20:25:01.744Z,95072.38
2017-07-12T20:27:32.562Z,95070.47
2017-07-12T20:30:02.170Z,95075.64
2017-07-12T20:32:29.944Z,95075.92
2017-07-12T20:34:57.623Z,95070.61
2017-07-12T20:37:25.296Z,95072.70
2017-07-12T20:40:06.615Z,95076.31
2017-07-12T20:42:34.296Z,95078.81
2017-07-12T20:45:02.010Z,95073.25
2017-07-12T20:47:32.360Z,95071.00
2017-07-12T20:50:01.331Z,95072.96
2017-07-12T20:52:33.089Z,95072.16
2017-07-12T20:57:42.303Z,95079.76
2017-07-12T21:00:11.546Z,95070.99
2017-07-12T21:02:47.402Z,95075.38
2017-07-12T21:05:16.143Z,95070.27
2017-07-12T21:07:45.123Z,95068.52
2017-07-12T21:10:14.807Z,95072.07
2017-07-12T21:12:48.441Z,95071.27
2017-07-12T21:15:20.030Z,95071.02
2017-07-12T21:17:51.945Z,95060.67
2017-07-12T21:20:28.564Z,95067.30
2017-07-12T21:22:56.254Z,95057.57
2017-07-12T21:25:28.604Z,95058.78
2017-07-12T21:30:52.774Z,95056.75
2017-07-12T21:33:24.703Z,95061.59
2017-07-12T21:36:06.221Z,95063.56
2017-07-12T21:38:35.263Z,95068.72
2017-07-12T21:41:05.087Z,95071.14
2017-07-12T21:43:37.629Z,95070.20
2017-07-12T21:46:18.773Z,95066.58
2017-07-12T21:48:57.537Z,95064.30
2017-07-12T21:51:25.366Z,95065.83
2017-07-12T21:54:14.251Z,95060.71
2017-07-12T21:57:04.942Z,95063.27
2017-07-12T21:59:52.838Z,95066.22
2017-07-12T22:02:40.862Z,95064.58
2017-07-12T22:05:36.293Z,95064.97
2017-07-12T22:08:25.451Z,95060.31
2017-07-12T22:11:20.514Z,95061.13
2017-07-12T22:14:07.840Z,95065.75
2017-07-12T22:17:02.943Z,95065.05
2017-07-12T22:19:50.893Z,95074.05
2017-07-12T22:25:33.496Z,95076.10
2017-07-12T22:28:22.690Z,95065.58
2017-07-12T22:31:10.300Z,95065.05
2017-07-12T22:33:55.599Z,95059.34
2017-07-12T22:36:40.431Z,95071.26
2017-07-12T22:39:13.611Z,95059.14
2017-07-12T22:41:47.650Z,95063.32
2017-07-12T22:44:15.569Z,95055.89
2017-07-12T22:46:43.685Z,95056.15
2017-07-12T22:49:11.671Z,95056.73
2017-07-12T22:51:39.441Z,95057.83
2017-07-12T22:54:07.251Z,95050.63
2017-07-12T22:56:34.915Z,95046.78
2017-07-12T22:59:02.895Z,95043.77
2017-07-12T23:01:31.134Z,95045.38
2017-07-12T23:03:58.724Z,95046.78
2017-07-12T23:06:26.421Z,95040.41
2017-07-12T23:08:54.929Z,95043.59
2017-07-12T23:11:22.966Z,95044.30
2017-07-12T23:13:50.723Z,95042.62
2017-07-12T23:26:40.761Z,95023.97
2017-07-12T23:29:09.277Z,95021.80
2017-07-12T23:31:36.973Z,95024.06
2017-07-12T23:34:04.688Z,95030.25
2017-07-12T23:36:33.223Z,95028.75
2017-07-12T23:39:00.838Z,95018.36
2017-07-12T23:41:28.469Z,95020.38
2017-07-12T23:44:08.708Z,95021.83
2017-07-12T23:46:36.528Z,95022.75
2017-07-12T23:49:05.432Z,95015.05
2017-07-12T23:51:33.117Z,95012.79
2017-07-12T23:54:00.950Z,95012.48
2017-07-12T23:56:29.972Z,95004.64
2017-07-12T23:58:57.954Z,95007.64
